sensor_id;sensor_type;location;lat;lon;timestamp;temperature;humidity
12959;DHT22;6544;51.666;6.634;2023-01-28T00:01:20;4.10;1.00
12959;DHT22;6544;51.666;6.634;2023-01-28T00:03:48;4.20;1.00
12959;DHT22;6544;51.666;6.634;2023-01-28T00:06:18;4.10;1.00
12959;DHT22;6544;51.666;6.634;2023-01-28T00:08:45;4.00;1.00
12959;DHT22;6544;51.666;6.634;2023-01-28T00:11:12;4.00;1.00
12959;DHT22;6544;51.666;6.634;2023-01-28T00:13:39;4.10;1.00
12959;DHT22;6544;51.666;6.634;2023-01-28T00:16:07;4.20;1.00
12959;DHT22;6544;51.666;6.634;2023-01-28T00:18:35;4.10;1.00
12959;DHT22;6544;51.666;6.634;2023-01-28T00:21:04;4.00;1.00
12959;DHT22;6544;51.666;6.634;2023-01-28T00:23:35;4.00;1.00
12959;DHT22;6544;51.666;6.634;2023-01-28T00:26:05;3.90;1.00
12959;DHT22;6544;51.666;6.634;2023-01-28T00:28:32;3.90;1.00
12959;DHT22;6544;51.666;6.634;2023-01-28T00:31:05;4.00;1.00
12959;DHT22;6544;51.666;6.634;2023-01-28T00:33:32;4.10;1.00
12959;DHT22;6544;51.666;6.634;2023-01-28T00:35:59;3.90;1.00
12959;DHT22;6544;51.666;6.634;2023-01-28T00:38:27;3.90;1.00
12959;DHT22;6544;51.666;6.634;2023-01-28T00:40:55;3.90;1.00
12959;DHT22;6544;51.666;6.634;2023-01-28T00:43:32;3.90;1.00
12959;DHT22;6544;51.666;6.634;2023-01-28T00:45:59;3.80;1.00
12959;DHT22;6544;51.666;6.634;2023-01-28T00:48:25;3.90;1.00
12959;DHT22;6544;51.666;6.634;2023-01-28T00:50:52;3.90;1.00
12959;DHT22;6544;51.666;6.634;2023-01-28T00:53:19;3.90;1.00
12959;DHT22;6544;51.666;6.634;2023-01-28T00:55:46;3.80;1.00
12959;DHT22;6544;51.666;6.634;2023-01-28T00:58:14;3.80;1.00
12959;DHT22;6544;51.666;6.634;2023-01-28T01:00:41;3.90;1.00
12959;DHT22;6544;51.666;6.634;2023-01-28T01:03:08;3.90;1.00
12959;DHT22;6544;51.666;6.634;2023-01-28T01:05:35;3.80;1.00
12959;DHT22;6544;51.666;6.634;2023-01-28T01:08:02;3.80;1.00
12959;DHT22;6544;51.666;6.634;2023-01-28T01:10:29;3.90;1.00
12959;DHT22;6544;51.666;6.634;2023-01-28T01:12:55;3.80;1.00
12959;DHT22;6544;51.666;6.634;2023-01-28T01:15:25;3.70;1.00
12959;DHT22;6544;51.666;6.634;2023-01-28T01:17:53;3.90;1.00
12959;DHT22;6544;51.666;6.634;2023-01-28T01:20:22;3.90;1.00
12959;DHT22;6544;51.666;6.634;2023-01-28T01:22:49;3.90;1.00
12959;DHT22;6544;51.666;6.634;2023-01-28T01:25:17;3.80;1.00
12959;DHT22;6544;51.666;6.634;2023-01-28T01:27:46;3.80;1.00
12959;DHT22;6544;51.666;6.634;2023-01-28T01:30:20;3.80;1.00
12959;DHT22;6544;51.666;6.634;2023-01-28T01:32:49;3.80;1.00
12959;DHT22;6544;51.666;6.634;2023-01-28T01:35:15;3.70;1.00
12959;DHT22;6544;51.666;6.634;2023-01-28T01:37:43;3.70;1.00
12959;DHT22;6544;51.666;6.634;2023-01-28T01:40:11;3.80;1.00
12959;DHT22;6544;51.666;6.634;2023-01-28T01:42:38;3.90;1.00
12959;DHT22;6544;51.666;6.634;2023-01-28T01:45:10;4.00;1.00
12959;DHT22;6544;51.666;6.634;2023-01-28T01:47:42;4.00;1.00
12959;DHT22;6544;51.666;6.634;2023-01-28T01:50:19;4.10;1.00
12959;DHT22;6544;51.666;6.634;2023-01-28T01:52:50;3.90;1.00
12959;DHT22;6544;51.666;6.634;2023-01-28T01:55:20;4.00;1.00
12959;DHT22;6544;51.666;6.634;2023-01-28T01:57:51;3.90;1.00
12959;DHT22;6544;51.666;6.634;2023-01-28T02:00:19;3.90;1.00
12959;DHT22;6544;51.666;6.634;2023-01-28T02:02:48;3.80;1.00
12959;DHT22;6544;51.666;6.634;2023-01-28T02:05:20;3.80;1.00
12959;DHT22;6544;51.666;6.634;2023-01-28T02:07:50;3.70;1.00
12959;DHT22;6544;51.666;6.634;2023-01-28T02:10:20;3.60;1.00
12959;DHT22;6544;51.666;6.634;2023-01-28T02:12:50;3.70;1.00
12959;DHT22;6544;51.666;6.634;2023-01-28T02:15:20;3.60;1.00
12959;DHT22;6544;51.666;6.634;2023-01-28T02:17:49;3.70;1.00
12959;DHT22;6544;51.666;6.634;2023-01-28T02:20:20;3.60;1.00
12959;DHT22;6544;51.666;6.634;2023-01-28T02:26:14;3.60;1.00
12959;DHT22;6544;51.666;6.634;2023-01-28T02:28:47;3.70;1.00
12959;DHT22;6544;51.666;6.634;2023-01-28T02:31:20;3.70;1.00
12959;DHT22;6544;51.666;6.634;2023-01-28T02:33:53;3.70;1.00
12959;DHT22;6544;51.666;6.634;2023-01-28T02:36:27;3.60;1.00
12959;DHT22;6544;51.666;6.634;2023-01-28T02:39:00;3.40;1.00
12959;DHT22;6544;51.666;6.634;2023-01-28T02:41:32;3.20;1.00
12959;DHT22;6544;51.666;6.634;2023-01-28T02:44:02;3.10;1.00
12959;DHT22;6544;51.666;6.634;2023-01-28T02:46:34;3.20;1.00
12959;DHT22;6544;51.666;6.634;2023-01-28T02:49:22;3.20;1.00
12959;DHT22;6544;51.666;6.634;2023-01-28T02:52:02;3.20;1.00
12959;DHT22;6544;51.666;6.634;2023-01-28T02:54:38;3.20;1.00
12959;DHT22;6544;51.666;6.634;2023-01-28T02:57:18;3.20;1.00
12959;DHT22;6544;51.666;6.634;2023-01-28T02:59:55;3.20;1.00
12959;DHT22;6544;51.666;6.634;2023-01-28T03:02:28;3.20;1.00
12959;DHT22;6544;51.666;6.634;2023-01-28T03:05:01;3.20;1.00
12959;DHT22;6544;51.666;6.634;2023-01-28T03:07:30;3.20;1.00
12959;DHT22;6544;51.666;6.634;2023-01-28T03:10:01;3.30;1.00
12959;DHT22;6544;51.666;6.634;2023-01-28T03:12:31;3.40;1.00
12959;DHT22;6544;51.666;6.634;2023-01-28T03:15:20;3.30;1.00
12959;DHT22;6544;51.666;6.634;2023-01-28T03:18:09;3.50;1.00
12959;DHT22;6544;51.666;6.634;2023-01-28T03:20:59;3.50;1.00
12959;DHT22;6544;51.666;6.634;2023-01-28T03:23:49;3.50;1.00
12959;DHT22;6544;51.666;6.634;2023-01-28T03:26:43;3.60;1.00
12959;DHT22;6544;51.666;6.634;2023-01-28T03:29:29;3.60;1.00
12959;DHT22;6544;51.666;6.634;2023-01-28T03:32:19;3.60;1.00
12959;DHT22;6544;51.666;6.634;2023-01-28T03:35:06;3.60;1.00
12959;DHT22;6544;51.666;6.634;2023-01-28T03:37:51;3.60;1.00
12959;DHT22;6544;51.666;6.634;2023-01-28T03:40:19;3.60;1.00
12959;DHT22;6544;51.666;6.634;2023-01-28T03:42:46;3.60;1.00
12959;DHT22;6544;51.666;6.634;2023-01-28T03:45:13;3.50;1.00
12959;DHT22;6544;51.666;6.634;2023-01-28T03:47:41;3.50;1.00
12959;DHT22;6544;51.666;6.634;2023-01-28T03:50:09;3.50;1.00
12959;DHT22;6544;51.666;6.634;2023-01-28T03:52:36;3.50;1.00
12959;DHT22;6544;51.666;6.634;2023-01-28T03:55:04;3.40;1.00
12959;DHT22;6544;51.666;6.634;2023-01-28T03:57:38;3.30;1.00
12959;DHT22;6544;51.666;6.634;2023-01-28T04:00:06;3.20;1.00
12959;DHT22;6544;51.666;6.634;2023-01-28T04:02:36;3.40;1.00
12959;DHT22;6544;51.666;6.634;2023-01-28T04:05:07;3.30;1.00
12959;DHT22;6544;51.666;6.634;2023-01-28T04:07:37;3.20;1.00
12959;DHT22;6544;51.666;6.634;2023-01-28T04:10:05;3.20;1.00
12959;DHT22;6544;51.666;6.634;2023-01-28T04:12:33;3.20;1.00
12959;DHT22;6544;51.666;6.634;2023-01-28T04:15:04;3.00;1.00
12959;DHT22;6544;51.666;6.634;2023-01-28T04:17:43;3.00;1.00
12959;DHT22;6544;51.666;6.634;2023-01-28T04:20:13;3.00;1.00
12959;DHT22;6544;51.666;6.634;2023-01-28T04:22:40;3.10;1.00
12959;DHT22;6544;51.666;6.634;2023-01-28T04:25:08;3.00;1.00
12959;DHT22;6544;51.666;6.634;2023-01-28T04:27:35;3.10;1.00
12959;DHT22;6544;51.666;6.634;2023-01-28T04:30:02;3.20;1.00
12959;DHT22;6544;51.666;6.634;2023-01-28T04:32:29;3.10;1.00
12959;DHT22;6544;51.666;6.634;2023-01-28T04:34:56;3.10;1.00
12959;DHT22;6544;51.666;6.634;2023-01-28T04:37:24;3.20;1.00
12959;DHT22;6544;51.666;6.634;2023-01-28T04:39:51;3.10;1.00
12959;DHT22;6544;51.666;6.634;2023-01-28T04:42:18;3.20;1.00
12959;DHT22;6544;51.666;6.634;2023-01-28T04:44:45;3.20;1.00
12959;DHT22;6544;51.666;6.634;2023-01-28T04:47:11;3.10;1.00
12959;DHT22;6544;51.666;6.634;2023-01-28T04:49:38;3.30;1.00
12959;DHT22;6544;51.666;6.634;2023-01-28T04:52:05;3.30;1.00
12959;DHT22;6544;51.666;6.634;2023-01-28T04:54:34;3.30;1.00
12959;DHT22;6544;51.666;6.634;2023-01-28T04:57:01;3.40;1.00
12959;DHT22;6544;51.666;6.634;2023-01-28T04:59:27;3.20;1.00
12959;DHT22;6544;51.666;6.634;2023-01-28T05:01:54;3.10;1.00
12959;DHT22;6544;51.666;6.634;2023-01-28T05:04:21;3.00;1.00
12959;DHT22;6544;51.666;6.634;2023-01-28T05:06:48;2.80;1.00
12959;DHT22;6544;51.666;6.634;2023-01-28T05:09:15;2.70;1.00
12959;DHT22;6544;51.666;6.634;2023-01-28T05:11:43;2.70;1.00
12959;DHT22;6544;51.666;6.634;2023-01-28T05:14:10;2.80;1.00
12959;DHT22;6544;51.666;6.634;2023-01-28T05:16:37;2.80;1.00
12959;DHT22;6544;51.666;6.634;2023-01-28T05:19:04;2.90;1.00
12959;DHT22;6544;51.666;6.634;2023-01-28T05:21:31;3.00;1.00
12959;DHT22;6544;51.666;6.634;2023-01-28T05:23:58;2.80;1.00
12959;DHT22;6544;51.666;6.634;2023-01-28T05:26:25;2.90;1.00
12959;DHT22;6544;51.666;6.634;2023-01-28T05:28:53;2.80;1.00
12959;DHT22;6544;51.666;6.634;2023-01-28T05:31:21;2.60;1.00
12959;DHT22;6544;51.666;6.634;2023-01-28T05:33:48;2.60;1.00
12959;DHT22;6544;51.666;6.634;2023-01-28T05:36:17;2.60;1.00
12959;DHT22;6544;51.666;6.634;2023-01-28T05:38:44;2.50;1.00
12959;DHT22;6544;51.666;6.634;2023-01-28T05:41:11;2.50;1.00
12959;DHT22;6544;51.666;6.634;2023-01-28T05:43:38;2.40;1.00
12959;DHT22;6544;51.666;6.634;2023-01-28T05:46:06;2.30;1.00
12959;DHT22;6544;51.666;6.634;2023-01-28T05:48:33;2.30;1.00
12959;DHT22;6544;51.666;6.634;2023-01-28T05:51:00;2.40;1.00
12959;DHT22;6544;51.666;6.634;2023-01-28T05:53:27;2.60;1.00
12959;DHT22;6544;51.666;6.634;2023-01-28T05:55:54;2.70;1.00
12959;DHT22;6544;51.666;6.634;2023-01-28T05:58:21;2.70;1.00
12959;DHT22;6544;51.666;6.634;2023-01-28T06:00:48;2.60;1.00
12959;DHT22;6544;51.666;6.634;2023-01-28T06:03:16;2.50;1.00
12959;DHT22;6544;51.666;6.634;2023-01-28T06:05:43;2.50;1.00
12959;DHT22;6544;51.666;6.634;2023-01-28T06:08:10;2.50;1.00
12959;DHT22;6544;51.666;6.634;2023-01-28T06:10:38;2.50;1.00
12959;DHT22;6544;51.666;6.634;2023-01-28T06:13:04;2.40;1.00
12959;DHT22;6544;51.666;6.634;2023-01-28T06:15:32;2.40;1.00
12959;DHT22;6544;51.666;6.634;2023-01-28T06:17:59;2.30;1.00
12959;DHT22;6544;51.666;6.634;2023-01-28T06:20:27;2.30;1.00
12959;DHT22;6544;51.666;6.634;2023-01-28T06:22:54;2.20;1.00
12959;DHT22;6544;51.666;6.634;2023-01-28T06:25:21;2.10;1.00
12959;DHT22;6544;51.666;6.634;2023-01-28T06:27:48;2.10;1.00
12959;DHT22;6544;51.666;6.634;2023-01-28T06:30:15;2.20;1.00
12959;DHT22;6544;51.666;6.634;2023-01-28T06:32:42;2.20;1.00
12959;DHT22;6544;51.666;6.634;2023-01-28T06:35:09;2.30;1.00
12959;DHT22;6544;51.666;6.634;2023-01-28T06:37:37;2.30;1.00
12959;DHT22;6544;51.666;6.634;2023-01-28T06:40:07;2.30;1.00
12959;DHT22;6544;51.666;6.634;2023-01-28T06:42:34;2.20;1.00
12959;DHT22;6544;51.666;6.634;2023-01-28T06:45:01;2.20;1.00
12959;DHT22;6544;51.666;6.634;2023-01-28T06:47:28;2.30;1.00
12959;DHT22;6544;51.666;6.634;2023-01-28T06:49:55;2.30;1.00
12959;DHT22;6544;51.666;6.634;2023-01-28T06:52:22;2.50;1.00
12959;DHT22;6544;51.666;6.634;2023-01-28T06:54:50;2.50;1.00
12959;DHT22;6544;51.666;6.634;2023-01-28T06:57:17;2.20;1.00
12959;DHT22;6544;51.666;6.634;2023-01-28T06:59:44;2.10;1.00
12959;DHT22;6544;51.666;6.634;2023-01-28T07:02:10;2.40;1.00
12959;DHT22;6544;51.666;6.634;2023-01-28T07:04:37;2.40;1.00
12959;DHT22;6544;51.666;6.634;2023-01-28T07:07:04;2.50;1.00
12959;DHT22;6544;51.666;6.634;2023-01-28T07:09:31;2.60;1.00
12959;DHT22;6544;51.666;6.634;2023-01-28T07:11:59;2.60;1.00
12959;DHT22;6544;51.666;6.634;2023-01-28T07:14:29;2.30;1.00
12959;DHT22;6544;51.666;6.634;2023-01-28T07:16:56;2.20;1.00
12959;DHT22;6544;51.666;6.634;2023-01-28T07:19:23;2.30;1.00
12959;DHT22;6544;51.666;6.634;2023-01-28T07:21:50;2.50;1.00
12959;DHT22;6544;51.666;6.634;2023-01-28T07:24:17;2.30;1.00
12959;DHT22;6544;51.666;6.634;2023-01-28T07:26:44;2.30;1.00
12959;DHT22;6544;51.666;6.634;2023-01-28T07:29:14;2.30;1.00
12959;DHT22;6544;51.666;6.634;2023-01-28T07:31:41;2.20;1.00
12959;DHT22;6544;51.666;6.634;2023-01-28T07:34:08;2.20;1.00
12959;DHT22;6544;51.666;6.634;2023-01-28T07:36:35;2.40;1.00
12959;DHT22;6544;51.666;6.634;2023-01-28T07:39:02;2.20;1.00
12959;DHT22;6544;51.666;6.634;2023-01-28T07:41:29;1.90;1.00
12959;DHT22;6544;51.666;6.634;2023-01-28T07:43:56;2.00;1.00
12959;DHT22;6544;51.666;6.634;2023-01-28T07:46:24;1.90;1.00
12959;DHT22;6544;51.666;6.634;2023-01-28T07:48:51;1.90;1.00
12959;DHT22;6544;51.666;6.634;2023-01-28T07:51:19;2.00;1.00
12959;DHT22;6544;51.666;6.634;2023-01-28T07:53:46;1.80;1.00
12959;DHT22;6544;51.666;6.634;2023-01-28T07:56:13;1.90;1.00
12959;DHT22;6544;51.666;6.634;2023-01-28T07:58:40;1.90;1.00
12959;DHT22;6544;51.666;6.634;2023-01-28T08:01:06;1.60;1.00
12959;DHT22;6544;51.666;6.634;2023-01-28T08:03:35;1.70;1.00
12959;DHT22;6544;51.666;6.634;2023-01-28T08:06:02;1.60;1.00
12959;DHT22;6544;51.666;6.634;2023-01-28T08:08:29;1.50;1.00
12959;DHT22;6544;51.666;6.634;2023-01-28T08:10:56;1.60;1.00
12959;DHT22;6544;51.666;6.634;2023-01-28T08:13:23;1.70;1.00
12959;DHT22;6544;51.666;6.634;2023-01-28T08:15:54;1.80;1.00
12959;DHT22;6544;51.666;6.634;2023-01-28T08:18:21;1.80;1.00
12959;DHT22;6544;51.666;6.634;2023-01-28T08:20:54;1.70;1.00
12959;DHT22;6544;51.666;6.634;2023-01-28T08:23:20;1.80;1.00
12959;DHT22;6544;51.666;6.634;2023-01-28T08:25:47;1.90;1.00
12959;DHT22;6544;51.666;6.634;2023-01-28T08:28:15;2.00;1.00
12959;DHT22;6544;51.666;6.634;2023-01-28T08:31:01;2.00;1.00
12959;DHT22;6544;51.666;6.634;2023-01-28T08:33:28;1.80;1.00
12959;DHT22;6544;51.666;6.634;2023-01-28T08:35:56;2.00;1.00
12959;DHT22;6544;51.666;6.634;2023-01-28T08:38:23;1.80;1.00
12959;DHT22;6544;51.666;6.634;2023-01-28T08:40:50;1.70;1.00
12959;DHT22;6544;51.666;6.634;2023-01-28T08:43:20;1.60;1.00
12959;DHT22;6544;51.666;6.634;2023-01-28T08:45:46;1.70;1.00
12959;DHT22;6544;51.666;6.634;2023-01-28T08:48:15;1.50;1.00
12959;DHT22;6544;51.666;6.634;2023-01-28T08:50:42;1.60;1.00
12959;DHT22;6544;51.666;6.634;2023-01-28T08:53:15;1.60;1.00
12959;DHT22;6544;51.666;6.634;2023-01-28T08:55:42;1.50;1.00
12959;DHT22;6544;51.666;6.634;2023-01-28T08:58:11;1.50;1.00
12959;DHT22;6544;51.666;6.634;2023-01-28T09:00:38;1.60;1.00
12959;DHT22;6544;51.666;6.634;2023-01-28T09:03:05;1.50;1.00
12959;DHT22;6544;51.666;6.634;2023-01-28T09:05:33;1.30;1.00
12959;DHT22;6544;51.666;6.634;2023-01-28T09:08:00;1.30;1.00
12959;DHT22;6544;51.666;6.634;2023-01-28T09:10:29;1.50;1.00
12959;DHT22;6544;51.666;6.634;2023-01-28T09:12:56;1.60;1.00
12959;DHT22;6544;51.666;6.634;2023-01-28T09:15:23;1.70;1.00
12959;DHT22;6544;51.666;6.634;2023-01-28T09:17:56;1.80;1.00
12959;DHT22;6544;51.666;6.634;2023-01-28T09:20:23;1.60;1.00
12959;DHT22;6544;51.666;6.634;2023-01-28T09:22:50;1.60;1.00
12959;DHT22;6544;51.666;6.634;2023-01-28T09:25:17;1.90;1.00
12959;DHT22;6544;51.666;6.634;2023-01-28T09:27:46;1.80;1.00
12959;DHT22;6544;51.666;6.634;2023-01-28T09:30:13;1.70;1.00
12959;DHT22;6544;51.666;6.634;2023-01-28T09:32:40;1.70;1.00
12959;DHT22;6544;51.666;6.634;2023-01-28T09:35:07;1.70;1.00
12959;DHT22;6544;51.666;6.634;2023-01-28T09:37:36;1.70;1.00
12959;DHT22;6544;51.666;6.634;2023-01-28T09:40:04;1.90;1.00
12959;DHT22;6544;51.666;6.634;2023-01-28T09:43:00;2.00;1.00
12959;DHT22;6544;51.666;6.634;2023-01-28T09:45:36;2.10;1.00
12959;DHT22;6544;51.666;6.634;2023-01-28T09:48:05;2.00;1.00
12959;DHT22;6544;51.666;6.634;2023-01-28T09:50:37;2.10;1.00
12959;DHT22;6544;51.666;6.634;2023-01-28T09:53:08;2.00;1.00
12959;DHT22;6544;51.666;6.634;2023-01-28T09:55:38;2.00;1.00
12959;DHT22;6544;51.666;6.634;2023-01-28T09:58:10;1.80;1.00
12959;DHT22;6544;51.666;6.634;2023-01-28T10:00:41;1.50;1.00
12959;DHT22;6544;51.666;6.634;2023-01-28T10:03:33;1.50;1.00
12959;DHT22;6544;51.666;6.634;2023-01-28T10:06:11;1.70;1.00
12959;DHT22;6544;51.666;6.634;2023-01-28T10:09:12;1.70;1.00
12959;DHT22;6544;51.666;6.634;2023-01-28T10:11:55;1.60;1.00
12959;DHT22;6544;51.666;6.634;2023-01-28T10:14:35;1.70;1.00
12959;DHT22;6544;51.666;6.634;2023-01-28T10:17:11;1.90;1.00
12959;DHT22;6544;51.666;6.634;2023-01-28T10:19:41;1.80;1.00
12959;DHT22;6544;51.666;6.634;2023-01-28T10:22:12;1.80;1.00
12959;DHT22;6544;51.666;6.634;2023-01-28T10:24:46;1.70;1.00
12959;DHT22;6544;51.666;6.634;2023-01-28T10:27:16;1.70;1.00
12959;DHT22;6544;51.666;6.634;2023-01-28T10:29:49;1.80;1.00
12959;DHT22;6544;51.666;6.634;2023-01-28T10:32:21;1.80;1.00
12959;DHT22;6544;51.666;6.634;2023-01-28T10:34:51;1.80;1.00
12959;DHT22;6544;51.666;6.634;2023-01-28T10:37:18;1.90;1.00
12959;DHT22;6544;51.666;6.634;2023-01-28T10:39:46;1.90;1.00
12959;DHT22;6544;51.666;6.634;2023-01-28T10:42:19;1.90;1.00
12959;DHT22;6544;51.666;6.634;2023-01-28T10:44:50;1.90;1.00
12959;DHT22;6544;51.666;6.634;2023-01-28T10:47:26;1.90;1.00
12959;DHT22;6544;51.666;6.634;2023-01-28T10:49:55;1.70;1.00
12959;DHT22;6544;51.666;6.634;2023-01-28T10:52:25;1.80;1.00
12959;DHT22;6544;51.666;6.634;2023-01-28T10:54:59;1.80;1.00
12959;DHT22;6544;51.666;6.634;2023-01-28T10:57:26;1.80;1.00
12959;DHT22;6544;51.666;6.634;2023-01-28T10:59:55;1.90;1.00
12959;DHT22;6544;51.666;6.634;2023-01-28T11:02:28;2.00;1.00
12959;DHT22;6544;51.666;6.634;2023-01-28T11:05:02;2.00;1.00
12959;DHT22;6544;51.666;6.634;2023-01-28T11:07:30;2.00;1.00
12959;DHT22;6544;51.666;6.634;2023-01-28T11:09:57;2.00;1.00
12959;DHT22;6544;51.666;6.634;2023-01-28T11:12:25;1.90;1.00
12959;DHT22;6544;51.666;6.634;2023-01-28T11:14:55;1.70;1.00
12959;DHT22;6544;51.666;6.634;2023-01-28T11:17:24;1.60;1.00
12959;DHT22;6544;51.666;6.634;2023-01-28T11:19:52;1.70;1.00
12959;DHT22;6544;51.666;6.634;2023-01-28T11:22:23;1.70;1.00
12959;DHT22;6544;51.666;6.634;2023-01-28T11:24:53;1.70;1.00
12959;DHT22;6544;51.666;6.634;2023-01-28T11:27:30;1.80;1.00
12959;DHT22;6544;51.666;6.634;2023-01-28T11:30:00;1.80;1.00
12959;DHT22;6544;51.666;6.634;2023-01-28T11:32:29;1.80;1.00
12959;DHT22;6544;51.666;6.634;2023-01-28T11:34:57;1.80;1.00
12959;DHT22;6544;51.666;6.634;2023-01-28T11:37:26;1.80;1.00
12959;DHT22;6544;51.666;6.634;2023-01-28T11:40:01;1.80;1.00
12959;DHT22;6544;51.666;6.634;2023-01-28T11:42:29;2.00;1.00
12959;DHT22;6544;51.666;6.634;2023-01-28T11:44:58;1.90;1.00
12959;DHT22;6544;51.666;6.634;2023-01-28T11:47:42;1.90;1.00
12959;DHT22;6544;51.666;6.634;2023-01-28T11:50:23;2.10;1.00
12959;DHT22;6544;51.666;6.634;2023-01-28T11:52:59;2.40;1.00
12959;DHT22;6544;51.666;6.634;2023-01-28T11:55:40;2.50;1.00
12959;DHT22;6544;51.666;6.634;2023-01-28T11:58:20;2.60;1.00
12959;DHT22;6544;51.666;6.634;2023-01-28T12:00:57;2.60;1.00
12959;DHT22;6544;51.666;6.634;2023-01-28T12:03:43;2.70;1.00
12959;DHT22;6544;51.666;6.634;2023-01-28T12:06:23;2.90;1.00
12959;DHT22;6544;51.666;6.634;2023-01-28T12:09:00;2.90;1.00
12959;DHT22;6544;51.666;6.634;2023-01-28T12:11:39;2.90;1.00
12959;DHT22;6544;51.666;6.634;2023-01-28T12:14:58;3.00;1.00
12959;DHT22;6544;51.666;6.634;2023-01-28T12:17:38;2.80;1.00
12959;DHT22;6544;51.666;6.634;2023-01-28T12:20:16;3.10;1.00
12959;DHT22;6544;51.666;6.634;2023-01-28T12:23:09;3.10;1.00
12959;DHT22;6544;51.666;6.634;2023-01-28T12:25:48;3.10;1.00
12959;DHT22;6544;51.666;6.634;2023-01-28T12:28:25;3.10;1.00
12959;DHT22;6544;51.666;6.634;2023-01-28T12:31:11;3.20;1.00
12959;DHT22;6544;51.666;6.634;2023-01-28T12:34:02;3.40;1.00
12959;DHT22;6544;51.666;6.634;2023-01-28T12:36:44;3.40;1.00
12959;DHT22;6544;51.666;6.634;2023-01-28T12:39:23;3.20;1.00
12959;DHT22;6544;51.666;6.634;2023-01-28T12:42:02;3.20;1.00
12959;DHT22;6544;51.666;6.634;2023-01-28T12:44:33;3.50;1.00
12959;DHT22;6544;51.666;6.634;2023-01-28T12:47:08;3.50;1.00
12959;DHT22;6544;51.666;6.634;2023-01-28T12:49:41;3.60;1.00
12959;DHT22;6544;51.666;6.634;2023-01-28T12:52:13;3.70;1.00
12959;DHT22;6544;51.666;6.634;2023-01-28T12:54:46;3.70;1.00
12959;DHT22;6544;51.666;6.634;2023-01-28T12:57:23;3.70;1.00
12959;DHT22;6544;51.666;6.634;2023-01-28T12:59:55;3.90;1.00
12959;DHT22;6544;51.666;6.634;2023-01-28T13:02:26;3.90;1.00
12959;DHT22;6544;51.666;6.634;2023-01-28T13:05:02;4.00;1.00
12959;DHT22;6544;51.666;6.634;2023-01-28T13:07:33;4.00;1.00
12959;DHT22;6544;51.666;6.634;2023-01-28T13:10:05;4.10;1.00
12959;DHT22;6544;51.666;6.634;2023-01-28T13:12:37;4.00;1.00
12959;DHT22;6544;51.666;6.634;2023-01-28T13:15:11;3.80;1.00
12959;DHT22;6544;51.666;6.634;2023-01-28T13:17:39;3.60;1.00
12959;DHT22;6544;51.666;6.634;2023-01-28T13:20:15;3.30;1.00
12959;DHT22;6544;51.666;6.634;2023-01-28T13:22:43;3.40;1.00
12959;DHT22;6544;51.666;6.634;2023-01-28T13:25:21;3.60;1.00
12959;DHT22;6544;51.666;6.634;2023-01-28T13:27:56;3.70;1.00
12959;DHT22;6544;51.666;6.634;2023-01-28T13:30:26;3.70;1.00
12959;DHT22;6544;51.666;6.634;2023-01-28T13:32:56;3.70;1.00
12959;DHT22;6544;51.666;6.634;2023-01-28T13:35:30;3.70;1.00
12959;DHT22;6544;51.666;6.634;2023-01-28T13:37:58;3.80;1.00
12959;DHT22;6544;51.666;6.634;2023-01-28T13:40:27;3.80;1.00
12959;DHT22;6544;51.666;6.634;2023-01-28T13:43:00;3.70;1.00
12959;DHT22;6544;51.666;6.634;2023-01-28T13:45:28;3.80;1.00
12959;DHT22;6544;51.666;6.634;2023-01-28T13:48:01;3.70;1.00
12959;DHT22;6544;51.666;6.634;2023-01-28T13:50:38;2.90;1.00
12959;DHT22;6544;51.666;6.634;2023-01-28T13:53:17;2.70;1.00
12959;DHT22;6544;51.666;6.634;2023-01-28T13:55:46;2.70;1.00
12959;DHT22;6544;51.666;6.634;2023-01-28T13:58:49;2.60;1.00
12959;DHT22;6544;51.666;6.634;2023-01-28T14:01:54;2.90;1.00
12959;DHT22;6544;51.666;6.634;2023-01-28T14:11:24;3.50;1.00
12959;DHT22;6544;51.666;6.634;2023-01-28T14:14:22;3.50;1.00
12959;DHT22;6544;51.666;6.634;2023-01-28T14:16:55;3.60;1.00
12959;DHT22;6544;51.666;6.634;2023-01-28T14:19:27;3.60;1.00
12959;DHT22;6544;51.666;6.634;2023-01-28T14:21:55;3.50;1.00
12959;DHT22;6544;51.666;6.634;2023-01-28T14:24:25;3.50;1.00
12959;DHT22;6544;51.666;6.634;2023-01-28T14:26:58;3.30;1.00
12959;DHT22;6544;51.666;6.634;2023-01-28T14:29:45;3.30;1.00
12959;DHT22;6544;51.666;6.634;2023-01-28T14:32:16;3.40;1.00
12959;DHT22;6544;51.666;6.634;2023-01-28T14:34:44;3.40;1.00
12959;DHT22;6544;51.666;6.634;2023-01-28T14:37:13;3.40;1.00
12959;DHT22;6544;51.666;6.634;2023-01-28T14:39:45;3.40;1.00
12959;DHT22;6544;51.666;6.634;2023-01-28T14:42:18;3.30;1.00
12959;DHT22;6544;51.666;6.634;2023-01-28T14:44:48;3.20;1.00
12959;DHT22;6544;51.666;6.634;2023-01-28T14:47:37;3.30;1.00
12959;DHT22;6544;51.666;6.634;2023-01-28T14:50:20;3.30;1.00
12959;DHT22;6544;51.666;6.634;2023-01-28T14:53:16;3.20;1.00
12959;DHT22;6544;51.666;6.634;2023-01-28T14:55:55;3.30;1.00
12959;DHT22;6544;51.666;6.634;2023-01-28T14:58:28;3.30;1.00
12959;DHT22;6544;51.666;6.634;2023-01-28T15:00:58;3.00;1.00
12959;DHT22;6544;51.666;6.634;2023-01-28T15:03:26;2.60;1.00
12959;DHT22;6544;51.666;6.634;2023-01-28T15:06:04;2.60;1.00
12959;DHT22;6544;51.666;6.634;2023-01-28T15:08:31;2.80;1.00
12959;DHT22;6544;51.666;6.634;2023-01-28T15:11:02;2.70;1.00
12959;DHT22;6544;51.666;6.634;2023-01-28T15:13:35;2.80;1.00
12959;DHT22;6544;51.666;6.634;2023-01-28T15:16:04;3.00;1.00
12959;DHT22;6544;51.666;6.634;2023-01-28T15:18:33;3.10;1.00
12959;DHT22;6544;51.666;6.634;2023-01-28T15:21:01;3.20;1.00
12959;DHT22;6544;51.666;6.634;2023-01-28T15:23:32;3.30;1.00
12959;DHT22;6544;51.666;6.634;2023-01-28T15:26:03;3.30;1.00
12959;DHT22;6544;51.666;6.634;2023-01-28T15:28:32;3.40;1.00
12959;DHT22;6544;51.666;6.634;2023-01-28T15:30:59;3.50;1.00
12959;DHT22;6544;51.666;6.634;2023-01-28T15:33:29;3.50;1.00
12959;DHT22;6544;51.666;6.634;2023-01-28T15:35:57;3.50;1.00
12959;DHT22;6544;51.666;6.634;2023-01-28T15:38:27;3.50;1.00
12959;DHT22;6544;51.666;6.634;2023-01-28T15:40:56;3.50;1.00
12959;DHT22;6544;51.666;6.634;2023-01-28T15:43:27;3.50;1.00
12959;DHT22;6544;51.666;6.634;2023-01-28T15:45:56;3.60;1.00
12959;DHT22;6544;51.666;6.634;2023-01-28T15:48:25;3.60;1.00
12959;DHT22;6544;51.666;6.634;2023-01-28T15:51:00;3.40;1.00
12959;DHT22;6544;51.666;6.634;2023-01-28T15:53:32;3.20;1.00
12959;DHT22;6544;51.666;6.634;2023-01-28T15:56:04;2.70;1.00
12959;DHT22;6544;51.666;6.634;2023-01-28T15:58:33;3.00;1.00
12959;DHT22;6544;51.666;6.634;2023-01-28T16:01:17;3.00;1.00
12959;DHT22;6544;51.666;6.634;2023-01-28T16:04:00;2.40;1.00
12959;DHT22;6544;51.666;6.634;2023-01-28T16:06:31;2.20;1.00
12959;DHT22;6544;51.666;6.634;2023-01-28T16:09:02;2.00;1.00
12959;DHT22;6544;51.666;6.634;2023-01-28T16:11:31;1.90;1.00
12959;DHT22;6544;51.666;6.634;2023-01-28T16:14:19;2.00;1.00
12959;DHT22;6544;51.666;6.634;2023-01-28T16:16:47;1.80;1.00
12959;DHT22;6544;51.666;6.634;2023-01-28T16:19:22;1.80;1.00
12959;DHT22;6544;51.666;6.634;2023-01-28T16:21:51;1.70;1.00
12959;DHT22;6544;51.666;6.634;2023-01-28T16:24:24;1.60;1.00
12959;DHT22;6544;51.666;6.634;2023-01-28T16:26:56;1.60;1.00
12959;DHT22;6544;51.666;6.634;2023-01-28T16:29:25;1.80;1.00
12959;DHT22;6544;51.666;6.634;2023-01-28T16:31:52;1.90;1.00
12959;DHT22;6544;51.666;6.634;2023-01-28T16:34:19;2.10;1.00
12959;DHT22;6544;51.666;6.634;2023-01-28T16:36:46;2.30;1.00
12959;DHT22;6544;51.666;6.634;2023-01-28T16:39:13;2.40;1.00
12959;DHT22;6544;51.666;6.634;2023-01-28T16:41:41;2.40;1.00
12959;DHT22;6544;51.666;6.634;2023-01-28T16:44:12;2.30;1.00
12959;DHT22;6544;51.666;6.634;2023-01-28T16:46:41;2.10;1.00
12959;DHT22;6544;51.666;6.634;2023-01-28T16:49:08;2.20;1.00
12959;DHT22;6544;51.666;6.634;2023-01-28T16:51:36;2.40;1.00
12959;DHT22;6544;51.666;6.634;2023-01-28T16:54:04;2.50;1.00